Talent, Oregon
Current Conditions -  °F | °C
As of 12:53 AM on Thursday 27 Nov 2014 (Local Time) from KMFR Reporting Station
Haze Haze  
Wind Chill: 42°   Ceiling: 200
Heat Index: 46°   Visibility: 0.75mi
Dew Point: 45°   Wind: 7mph
Humidity: 96%   Direction: 230°SW
Pressure: 30.15"   Gusts: NA
Location:  42.25°N, 122.79°W
Report Text: KMFR 270853Z AUTO 23006KT 3/4SM R14/2600VP6000FT BR VV002 08/07 A3015 RMK AO2 SLP211 T00780072 58003
Loading
Personal Weather Stations






























Interactive Weather Map New forecast layout! Learn more

10-Day Weather Forecast

Advertisements
Track Severe Weather on mobile